AirNav   ProFlight Series 2 Aviation Headset
 
 1032 users online  

6MI4 Guardian Industries Heliport
Novi, Michigan, USA

GOING TO NOVI?


FAA INFORMATION EFFECTIVE 18 JUNE 2020

Location

FAA Identifier: 6MI4
Lat/Long: 42-27-00.1250N 083-28-11.7670W
42-27.002083N 083-28.196117W
42.4500347,-83.4699353
(estimated)
Elevation: 832 ft. / 254 m (estimated)
Variation: 06W (1985)
Time zone: UTC -4 (UTC -5 during Standard Time)
Zip code: 48375

Heliport Operations

Heliport use: Private use. Permission required prior to landing
Activation date: 10/1981
Control tower: no
ARTCC: CLEVELAND CENTER
FSS: LANSING FLIGHT SERVICE STATION
Attendance: DAYLIGHT HOURS
Wind indicator: yes
Segmented circle: no

Heliport Communications

WX ASOS at YIP (13 nm S): PHONE 734-961-6843
WX ASOS at PTK (13 nm N): 125.025 (248-886-8551)
WX AWOS-3 at VLL (14 nm NE): 119.475 (248-288-4649)
WX ASOS at DTW (15 nm S): 133.675 (734-955-5015)
WX ASOS at ARB (18 nm SW): 134.55 (734-668-7173)

Nearby radio navigation aids

VOR radial/distance  VOR name  Freq  Var
SVMr069/6.0SALEM VORTAC114.3003W
DXOr348/14.9DETROIT VOR/DME113.4006W
CRLr002/24.1CARLETON VOR/DME115.7003W
FNTr164/33.3FLINT VORTAC116.9006W

 
NDB name  Hdg/Dist  Freq  Var  ID
GROSSE ILE333/25.241907WRYS .-. -.-- ...
TECUMSEH043/31.123906WTCU - -.-. ..-

Heliport Services

Runway Information

Helipad H1

Dimensions: 20 x 20 ft. / 6 x 6 m
Surface: concrete
Latitude: 42-27.002083N
Longitude: 083-28.196117W
Elevation: 832.0 ft.
Traffic pattern: leftleft

Heliport Ownership and Management from official FAA records

Ownership: Privately-owned
Owner: BILL HADDAS
43043 W. NINE MILE RD.
NORTHVILLE, MI 48167
Phone 734-941-5822
Manager: BILL HADDAS
P.O. BOX 42384
DETROIT, MI 48242
Phone 313-941-5822

Additional Remarks

FOR CD CTC DETROIT APCH AT 800-499-8181.

Instrument Procedures

There are no published instrument procedures at 6MI4.

Some nearby airports with instrument procedures:

1D2 - Canton-Plymouth-Mettetal Airport (6 nm S)
Y47 - Oakland Southwest Airport (8 nm NW)
KYIP - Willow Run Airport (13 nm S)
KPTK - Oakland County International Airport (13 nm N)
KVLL - Oakland/Troy Airport (14 nm NE)
KDTW - Detroit Metropolitan Wayne County Airport (15 nm S)
KARB - Ann Arbor Municipal Airport (18 nm SW)
 
Loc | Ops | Rwys | IFR | FBO | Links
Com | Nav | Svcs | Stats | Notes
Area around 6MI4 (Guardian Industries Heliport)
 
Road maps at: MapQuest Bing Google
 
Aerial photo
No photo
 
Sectional chart

 
Airport distance calculator
Flying to Guardian Industries Heliport? Find the distance to fly.

From to 6MI4

Sunrise and sunset
Times for 02-Jul-2020
 Local
(UTC-4)
 Zulu
(UTC)
Morning civil twilight05:2809:28
Sunrise06:0310:03
Sunset21:1401:14
Evening civil twilight21:4801:48

Current date and time
Zulu (UTC)  02-Jul-2020 22:40:35
Local (UTC-4)  02-Jul-2020 18:40:35
 
METAR
KPTK 
13nm N 
022153Z VRB04KT 10SM FEW060 FEW250 32/11 A2999 RMK AO2 SLP148 T03220111 $
KYIP 
13nm S 
022153Z 34007KT 10SM CLR 33/14 A2999 RMK AO2 SLP149 T03330144
KVLL 
14nm NE 
022216Z AUTO 20003KT 10SM CLR 32/15 A3000 RMK AO2 T03230147
KDTW 
14nm SE 
022153Z 18008KT 10SM SCT070 31/17 A2999 RMK AO2 SLP152 T03060172
KARB 
18nm SW 
734-668-7173
022153Z AUTO 06006KT 10SM CLR 31/15 A3000 RMK AO2 SLP153 T03110150
KDET 
20nm E 
022153Z 19007KT 10SM CLR 30/18 A2999 RMK AO2 SLP150 T03000178
KOZW 
24nm NW 
022216Z AUTO 32004KT 10SM CLR 31/13 A3001 RMK AO2 T03100131
CYQG 
25nm SE 
022200Z AUTO VRB08KT 9SM CLR 31/17 A2999 RMK SLP153 DENSITY ALT 2400FT
KONZ 
25nm SE 
022215Z AUTO 19006KT 10SM CLR 27/20 A2999 RMK AO2 T02720197
TAF
KPTK 
13nm N 
021729Z 0218/0318 31005KT P6SM FEW050 SCT250 FM021900 32004KT P6SM FEW070 SCT250
KYIP 
13nm S 
021729Z 0218/0318 33005KT P6SM SCT060 SCT250 FM021900 16006KT P6SM FEW080 SCT250 FM030200 28004KT P6SM SCT250
KDTW 
14nm SE 
021729Z 0218/0324 34004KT P6SM SCT060 SCT250 FM021900 16006KT P6SM FEW080 SCT250 FM030200 28004KT P6SM SCT250
NOTAMs
Click for the latest NOTAMs
NOTAMs are issued by the DoD/FAA and will open in a separate window not controlled by AirNav.

 

 
 

Would you like to see your business listed on this page?

 If your business provides an interesting product or service to pilots, flight crews, aircraft, or users of the Guardian Industries Heliport, you should consider listing it here.  To start the listing process, click on the button below
 
Add a business
 

Other Pages about Guardian Industries Heliport

Update a link
 
Copyright © AirNav, LLC. All rights reserved. Privacy Policy  Contact